Time;durP1;ratioP1;P1;durP2;ratioP2;P2;SDS_P1;SDS_P2;PMS_P1;PMS_P2;Temp;Humidity;BMP_temperature;BMP_pressure;BME280_temperature;BME280_humidity;BME280_pressure;Samples;Min_cycle;Max_cycle;Signal;HPM_P1;HPM_P2
2022/03/10 00:02:10;;;;;;;6.60;3.20;;;;;;;-10.29;38.25;101634.88;4927025;29;20063;-79
2022/03/10 00:04:37;;;;;;;5.53;3.30;;;;;;;-10.25;38.57;101645.25;4925247;29;20047;-78
2022/03/10 00:07:03;;;;;;;6.77;3.63;;;;;;;-10.20;38.23;101654.16;4911924;29;20378;-77
2022/03/10 00:09:32;;;;;;;7.13;2.70;;;;;;;-10.45;38.07;101611.38;4928605;29;20143;-78
2022/03/10 00:12:00;;;;;;;9.23;3.30;;;;;;;-10.27;38.27;101640.06;4925572;29;20043;-80
2022/03/10 00:14:26;;;;;;;6.67;2.90;;;;;;;-10.27;38.00;101647.63;4926940;29;20051;-79
2022/03/10 00:16:52;;;;;;;6.03;2.90;;;;;;;-10.50;38.21;101620.97;4904375;29;20055;-79
2022/03/10 00:19:19;;;;;;;6.17;2.50;;;;;;;-10.41;37.74;101646.19;4911888;29;20044;-79
2022/03/10 00:21:46;;;;;;;7.97;3.10;;;;;;;-10.38;38.48;101649.00;4924008;29;20040;-78
2022/03/10 00:24:12;;;;;;;6.60;2.80;;;;;;;-10.38;38.32;101640.63;4915969;29;20047;-78
2022/03/10 00:26:38;;;;;;;8.13;2.73;;;;;;;-10.31;38.66;101650.53;4924331;29;20101;-77
2022/03/10 00:29:05;;;;;;;5.73;2.40;;;;;;;-10.25;38.30;101665.38;4921279;29;20409;-78
2022/03/10 00:31:31;;;;;;;5.23;2.37;;;;;;;-10.44;38.21;101645.88;4907658;29;20073;-77
2022/03/10 00:33:57;;;;;;;5.03;2.13;;;;;;;-10.42;38.29;101638.50;4920972;29;20044;-78
2022/03/10 00:36:24;;;;;;;4.67;2.70;;;;;;;-10.21;38.45;101657.41;4921929;29;20047;-79
2022/03/10 00:38:51;;;;;;;6.70;2.30;;;;;;;-10.26;38.41;101653.56;4889302;29;20058;-79
2022/03/10 00:41:17;;;;;;;7.97;2.70;;;;;;;-10.22;38.24;101658.16;4904707;29;20099;-78
2022/03/10 00:43:44;;;;;;;5.53;2.07;;;;;;;-10.22;38.49;101663.19;4910792;29;20098;-79
2022/03/10 00:46:10;;;;;;;7.00;2.40;;;;;;;-10.40;37.96;101640.44;4904973;29;20134;-78
2022/03/10 00:48:37;;;;;;;8.10;2.37;;;;;;;-10.39;38.31;101642.22;4912891;29;20130;-78
2022/03/10 00:51:06;;;;;;;6.20;2.37;;;;;;;-10.32;38.33;101656.31;4919816;29;20712;-78
2022/03/10 00:53:33;;;;;;;4.30;1.90;;;;;;;-10.30;38.21;101668.34;4921372;29;20051;-78
2022/03/10 00:55:59;;;;;;;3.53;1.83;;;;;;;-10.34;38.09;101662.81;4928955;29;20040;-80
2022/03/10 00:58:25;;;;;;;5.20;2.23;;;;;;;-10.30;38.15;101668.34;4904581;29;20104;-78
2022/03/10 01:00:52;;;;;;;4.47;1.97;;;;;;;-10.33;38.32;101670.53;4905646;29;20558;-80
2022/03/10 01:03:18;;;;;;;3.90;2.03;;;;;;;-10.38;38.00;101663.28;4921388;29;20052;-77
2022/03/10 01:05:44;;;;;;;4.77;2.30;;;;;;;-10.26;38.52;101682.13;4919897;29;20051;-79
2022/03/10 01:08:10;;;;;;;4.77;2.17;;;;;;;-10.43;38.26;101666.94;4920908;29;20115;-77
2022/03/10 01:10:37;;;;;;;6.20;2.57;;;;;;;-10.29;38.24;101692.78;4892164;29;20176;-79
2022/03/10 01:13:10;;;;;;;5.53;2.40;;;;;;;-10.44;38.17;101671.06;4925028;29;20059;-78
2022/03/10 01:15:36;;;;;;;5.13;2.40;;;;;;;-10.30;38.50;101691.00;4898383;29;20375;-79
2022/03/10 01:18:02;;;;;;;6.37;3.00;;;;;;;-10.39;38.00;101694.22;4934218;29;20079;-80
2022/03/10 01:20:28;;;;;;;7.40;2.70;;;;;;;-10.51;38.36;101692.16;4898200;29;20067;-78
2022/03/10 01:22:54;;;;;;;7.17;2.63;;;;;;;-10.49;38.66;101694.88;4945777;29;20051;-78
2022/03/10 01:25:20;;;;;;;9.70;3.33;;;;;;;-10.55;38.32;101684.16;4918861;29;20037;-79
2022/03/10 01:27:47;;;;;;;6.10;2.80;;;;;;;-10.48;38.21;101702.56;4891423;29;20069;-78
2022/03/10 01:30:14;;;;;;;6.93;3.50;;;;;;;-10.50;39.00;101701.50;4904945;29;20422;-77
2022/03/10 01:32:40;;;;;;;6.83;3.57;;;;;;;-10.55;38.42;101687.53;4921955;29;20336;-78
2022/03/10 01:35:07;;;;;;;7.23;3.30;;;;;;;-10.40;38.83;101715.97;4918869;29;20074;-78
2022/03/10 01:37:36;;;;;;;10.03;3.53;;;;;;;-10.42;38.36;101703.97;4874136;29;20036;-81
2022/03/10 01:40:08;;;;;;;11.77;4.00;;;;;;;-10.45;38.04;101704.50;4903134;29;20098;-78
2022/03/10 01:42:56;;;;;;;9.10;4.00;;;;;;;-10.45;38.41;101712.97;4890097;29;20470;-80
2022/03/10 01:45:22;;;;;;;7.43;2.90;;;;;;;-10.67;37.38;101702.22;4908998;29;20039;-78
2022/03/10 01:47:48;;;;;;;6.97;3.70;;;;;;;-10.67;38.33;101716.44;4921271;29;20534;-79
2022/03/10 01:50:16;;;;;;;7.47;3.17;;;;;;;-10.91;38.60;101691.31;4920058;29;20103;-78
2022/03/10 01:52:44;;;;;;;7.17;3.33;;;;;;;-10.87;38.73;101696.69;4920819;29;20501;-79
2022/03/10 01:55:11;;;;;;;7.43;3.53;;;;;;;-10.67;38.75;101719.84;4903025;29;20467;-77
2022/03/10 01:57:40;;;;;;;7.00;3.33;;;;;;;-10.67;38.55;101718.97;4905871;29;20040;-76
2022/03/10 02:00:08;;;;;;;6.80;3.50;;;;;;;-10.73;38.87;101701.59;4919233;29;20047;-79
2022/03/10 02:02:34;;;;;;;7.90;3.77;;;;;;;-10.61;38.61;101720.50;4905910;29;20102;-78
2022/03/10 02:05:00;;;;;;;5.77;3.23;;;;;;;-10.79;38.44;101684.19;4909339;29;20106;-79
2022/03/10 02:10:28;;;;;;;8.20;3.83;;;;;;;-10.80;38.33;101724.31;4908248;29;20047;-79
2022/03/10 02:12:57;;;;;;;15.23;6.17;;;;;;;-10.77;39.00;101734.69;4933209;29;20044;-79
2022/03/10 02:18:12;;;;;;;8.77;4.43;;;;;;;-10.85;38.39;101735.50;4917229;29;20047;-79
2022/03/10 02:20:40;;;;;;;8.47;3.70;;;;;;;-10.83;39.23;101739.06;4934424;29;20051;-78
2022/03/10 02:23:09;;;;;;;7.80;3.87;;;;;;;-10.82;39.04;101725.75;4907107;29;20262;-78
2022/03/10 02:25:37;;;;;;;10.50;4.57;;;;;;;-10.77;38.78;101748.16;4935945;29;20070;-78
2022/03/10 02:28:04;;;;;;;9.17;3.60;;;;;;;-11.51;38.97;101610.34;4936019;29;20169;-78
2022/03/10 02:30:32;;;;;;;8.57;4.00;;;;;;;-10.89;38.42;101724.22;4938386;29;20043;-78
2022/03/10 02:32:58;;;;;;;7.73;3.50;;;;;;;-10.85;38.55;101727.94;4938955;29;20107;-78
2022/03/10 02:35:25;;;;;;;10.43;4.10;;;;;;;-10.81;38.75;101751.06;4941230;29;20068;-78
2022/03/10 02:37:51;;;;;;;7.33;3.57;;;;;;;-10.87;38.63;101739.47;4943847;29;20028;-79
2022/03/10 02:40:18;;;;;;;8.33;3.67;;;;;;;-10.80;39.25;101745.31;4926112;29;20077;-78
2022/03/10 02:42:44;;;;;;;8.13;3.33;;;;;;;-10.70;38.70;101768.97;4935655;29;20044;-79
2022/03/10 02:45:11;;;;;;;7.27;3.60;;;;;;;-10.73;38.80;101758.56;4932887;29;20047;-78
2022/03/10 02:47:38;;;;;;;9.87;3.60;;;;;;;-10.76;38.85;101759.13;4922730;29;20040;-78
2022/03/10 02:50:06;;;;;;;10.30;3.33;;;;;;;-10.75;38.63;101759.28;4935335;29;20043;-78
2022/03/10 02:52:35;;;;;;;11.97;3.40;;;;;;;-10.75;38.79;101771.00;4935738;29;20051;-78
2022/03/10 02:55:02;;;;;;;7.57;3.60;;;;;;;-10.90;38.40;101752.63;4933871;29;20044;-78
2022/03/10 02:57:30;;;;;;;5.93;3.03;;;;;;;-10.80;38.75;101762.94;4914066;29;20043;-79
2022/03/10 02:59:59;;;;;;;8.07;3.53;;;;;;;-10.76;38.65;101757.50;4914987;29;20043;-78
2022/03/10 03:02:26;;;;;;;5.33;2.87;;;;;;;-10.68;38.98;101768.38;4938418;29;20056;-78
2022/03/10 03:04:53;;;;;;;5.50;2.67;;;;;;;-10.68;38.59;101775.06;4930966;29;20070;-79
2022/03/10 03:07:19;;;;;;;8.33;3.20;;;;;;;-10.77;38.52;101774.97;4914214;29;20051;-77
2022/03/10 03:09:45;;;;;;;6.83;3.03;;;;;;;-10.74;38.81;101780.34;4916665;29;20055;-78
2022/03/10 03:12:12;;;;;;;8.00;3.43;;;;;;;-10.77;38.43;101763.25;4923997;29;20071;-78
2022/03/10 03:14:37;;;;;;;7.47;3.00;;;;;;;-10.77;38.43;101778.34;4908624;29;20462;-78
2022/03/10 03:17:03;;;;;;;6.17;2.93;;;;;;;-10.86;38.86;101763.88;4920578;29;20115;-79
2022/03/10 03:19:33;;;;;;;4.87;2.90;;;;;;;-10.78;38.42;101786.63;4920338;29;20055;-79
2022/03/10 03:21:58;;;;;;;10.40;2.80;;;;;;;-10.81;38.79;101785.41;4922481;29;20468;-79
2022/03/10 03:24:24;;;;;;;8.47;3.33;;;;;;;-10.72;38.99;101790.53;4921331;29;20147;-78
2022/03/10 03:26:50;;;;;;;6.77;2.67;;;;;;;-10.73;38.98;101794.69;4905043;29;20514;-78
2022/03/10 03:29:17;;;;;;;9.37;3.13;;;;;;;-10.72;38.99;101790.53;4903542;29;20050;-79
2022/03/10 03:31:44;;;;;;;6.37;3.47;;;;;;;-10.88;39.17;101772.88;4918605;29;20059;-78
2022/03/10 03:34:10;;;;;;;8.07;3.77;;;;;;;-10.78;39.12;101795.81;4922155;29;20051;-77
2022/03/10 03:36:38;;;;;;;8.50;2.77;;;;;;;-10.79;38.88;101789.88;4921191;29;20071;-76
2022/03/10 03:39:04;;;;;;;7.43;3.03;;;;;;;-10.93;38.82;101768.28;4907204;29;20044;-78
2022/03/10 03:41:31;;;;;;;8.37;3.40;;;;;;;-10.78;39.16;101798.34;4885892;29;20135;-75
2022/03/10 03:43:56;;;;;;;10.03;2.97;;;;;;;-10.82;38.81;101798.72;4901958;29;20044;-79
2022/03/10 03:46:22;;;;;;;7.00;2.83;;;;;;;-10.77;39.01;101813.59;4920569;29;20761;-78
2022/03/10 03:48:48;;;;;;;7.10;3.40;;;;;;;-10.83;39.30;101794.41;4904666;29;20741;-77
2022/03/10 03:51:14;;;;;;;7.77;3.07;;;;;;;-10.83;38.60;101797.84;4900427;29;20044;-77
2022/03/10 03:53:40;;;;;;;9.70;4.00;;;;;;;-10.74;38.50;101815.56;4906234;29;20058;-80
2022/03/10 03:56:10;;;;;;;13.33;2.90;;;;;;;-11.03;38.84;101784.72;4896370;29;20044;-79
2022/03/10 03:58:36;;;;;;;8.30;2.87;;;;;;;-10.75;39.31;101826.34;4919431;29;20082;-76
2022/03/10 04:01:02;;;;;;;5.73;2.37;;;;;;;-10.72;39.13;101821.66;4916262;29;20570;-80
2022/03/10 04:03:28;;;;;;;6.87;2.77;;;;;;;-10.70;39.38;101819.28;4889341;29;20055;-78
2022/03/10 04:05:54;;;;;;;6.23;3.37;;;;;;;-10.72;38.42;101829.22;4914674;29;20071;-78
2022/03/10 04:08:21;;;;;;;6.70;2.53;;;;;;;-10.72;38.78;101834.25;4909994;29;20095;-77
2022/03/10 04:10:47;;;;;;;8.67;3.40;;;;;;;-10.67;39.01;101823.03;4929937;29;20044;-76
2022/03/10 04:13:13;;;;;;;11.40;4.07;;;;;;;-10.46;39.22;101836.13;4920286;29;20153;-76
2022/03/10 04:15:39;;;;;;;7.27;3.60;;;;;;;-10.31;38.72;101824.28;4925389;29;20048;-82
2022/03/10 04:18:05;;;;;;;10.27;3.77;;;;;;;-10.10;38.81;101848.34;4931105;29;20091;-80
2022/03/10 04:20:32;;;;;;;12.70;3.60;;;;;;;-9.99;39.00;101857.94;4926173;29;20562;-78
2022/03/10 04:22:58;;;;;;;8.77;3.53;;;;;;;-9.88;38.49;101853.16;4893408;29;20070;-79
2022/03/10 04:25:24;;;;;;;11.53;3.47;;;;;;;-9.80;38.86;101831.28;4903661;29;20122;-81
2022/03/10 04:27:53;;;;;;;8.53;3.07;;;;;;;-9.58;38.13;101852.97;4905946;29;20052;-79
2022/03/10 04:30:22;;;;;;;7.27;2.80;;;;;;;-9.47;38.63;101838.97;4905668;29;20050;-77
2022/03/10 04:32:49;;;;;;;7.53;3.43;;;;;;;-9.38;38.45;101844.94;4875157;29;20051;-77
2022/03/10 04:35:18;;;;;;;7.97;2.87;;;;;;;-9.15;37.90;101860.69;4912089;29;20087;-78
2022/03/10 04:37:48;;;;;;;6.57;2.87;;;;;;;-8.94;37.51;101856.97;4929907;29;20049;-77
2022/03/10 04:40:14;;;;;;;6.70;3.43;;;;;;;-8.86;38.22;101851.06;4948292;29;20152;-79
2022/03/10 04:42:41;;;;;;;7.47;3.20;;;;;;;-8.98;37.87;101776.63;4923768;29;20111;-77
2022/03/10 04:45:10;;;;;;;13.33;3.43;;;;;;;-8.19;38.14;101845.03;4939196;29;20043;-80
2022/03/10 04:47:37;;;;;;;6.27;3.30;;;;;;;-7.39;37.70;101871.25;4906124;29;20513;-80
2022/03/10 04:50:05;;;;;;;13.50;3.30;;;;;;;-6.06;37.39;101836.38;4887024;29;20044;-79
2022/03/10 04:52:32;;;;;;;5.70;2.60;;;;;;;-4.34;36.29;101827.47;4921864;29;20054;-78
2022/03/10 04:54:58;;;;;;;7.68;2.72;;;;;;;-2.99;35.17;101832.31;4917975;29;20078;-81
2022/03/10 04:57:25;;;;;;;8.57;2.90;;;;;;;-1.76;33.74;101845.84;4917765;29;20059;-79
2022/03/10 04:59:51;;;;;;;5.32;2.80;;;;;;;-0.48;33.40;101838.72;4886154;29;20406;-79
2022/03/10 05:02:17;;;;;;;11.13;3.53;;;;;;;0.72;32.40;101847.41;4920095;29;20060;-81
2022/03/10 05:04:43;;;;;;;6.82;3.22;;;;;;;1.56;31.38;101847.44;4886575;29;20042;-80
2022/03/10 05:07:12;;;;;;;7.60;3.15;;;;;;;2.61;30.55;101841.50;4890885;29;20135;-80
2022/03/10 05:09:38;;;;;;;6.55;3.03;;;;;;;3.36;28.97;101823.25;4920051;29;20055;-78
2022/03/10 05:12:06;;;;;;;5.90;3.38;;;;;;;4.22;28.31;101839.66;4888936;29;20048;-78
2022/03/10 05:14:35;;;;;;;15.10;5.28;;;;;;;5.03;28.15;101834.03;4903296;29;20052;-78
2022/03/10 05:17:02;;;;;;;7.15;3.20;;;;;;;5.84;26.50;101847.97;4921600;29;20048;-79
2022/03/10 05:19:28;;;;;;;9.63;3.72;;;;;;;6.60;26.32;101841.66;4888975;29;20048;-80
2022/03/10 05:21:57;;;;;;;6.85;4.30;;;;;;;7.39;25.38;101847.25;4918641;29;20514;-80
2022/03/10 05:24:26;;;;;;;8.75;3.53;;;;;;;7.89;23.99;101842.94;4903500;29;20048;-80
2022/03/10 05:26:53;;;;;;;7.43;3.70;;;;;;;8.55;23.69;101842.59;4904904;29;20051;-80
2022/03/10 05:29:27;;;;;;;9.45;3.67;;;;;;;9.08;22.78;101851.97;4914793;29;20044;-79
2022/03/10 05:31:53;;;;;;;5.50;3.65;;;;;;;9.54;21.55;101854.16;4903020;29;20127;-80
2022/03/10 05:34:19;;;;;;;7.47;3.75;;;;;;;9.94;21.71;101845.75;4904928;29;20044;-77
2022/03/10 05:36:53;;;;;;;9.65;3.95;;;;;;;10.77;20.98;101848.66;4922410;29;20044;-79
2022/03/10 05:39:22;;;;;;;10.60;4.65;;;;;;;11.22;20.55;101822.69;4920849;29;20130;-82
2022/03/10 05:41:48;;;;;;;9.65;4.22;;;;;;;11.87;20.09;101844.81;4874277;29;20052;-79
2022/03/10 05:44:14;;;;;;;7.82;4.53;;;;;;;12.32;19.45;101809.09;4906865;29;20102;-79
2022/03/10 05:46:40;;;;;;;10.30;4.70;;;;;;;13.11;19.20;101845.03;4922495;29;20035;-79
2022/03/10 05:49:07;;;;;;;7.93;4.70;;;;;;;13.71;18.75;101851.88;4929312;29;20071;-83
2022/03/10 05:51:35;;;;;;;7.28;4.47;;;;;;;14.15;17.43;101833.13;4934857;29;20043;-78
2022/03/10 05:54:04;;;;;;;12.63;4.97;;;;;;;14.71;17.42;101843.19;4922704;29;20167;-79
2022/03/10 05:56:33;;;;;;;10.63;5.30;;;;;;;15.26;17.02;101839.06;4906558;29;20050;-78
2022/03/10 05:58:59;;;;;;;7.43;5.35;;;;;;;15.25;15.75;101856.56;4924521;29;20039;-79
2022/03/10 06:01:28;;;;;;;9.38;5.57;;;;;;;15.18;16.13;101812.81;4894751;29;20066;-77
2022/03/10 06:04:06;;;;;;;9.25;5.07;;;;;;;15.57;15.75;101832.19;4924981;29;20044;-78
2022/03/10 06:06:38;;;;;;;9.05;5.55;;;;;;;16.12;15.22;101867.31;4920827;29;20050;-81
2022/03/10 06:09:07;;;;;;;8.63;5.30;;;;;;;16.11;15.20;101810.44;4907778;29;20147;-79
2022/03/10 06:11:33;;;;;;;8.98;4.90;;;;;;;17.03;14.59;101853.25;4904335;29;20067;-81
2022/03/10 06:13:59;;;;;;;8.02;4.85;;;;;;;17.08;14.31;101855.84;4903928;29;20386;-81
2022/03/10 06:16:26;;;;;;;8.48;5.05;;;;;;;17.34;14.08;101858.38;4918192;29;20068;-79
2022/03/10 06:18:53;;;;;;;7.45;4.55;;;;;;;17.86;13.82;101865.13;4940096;29;20058;-79
2022/03/10 06:21:26;;;;;;;6.43;5.20;;;;;;;18.28;13.19;101820.06;4921445;29;20043;-80
2022/03/10 06:23:52;;;;;;;8.38;4.70;;;;;;;19.06;12.75;101865.00;4885821;29;20052;-80
2022/03/10 06:26:21;;;;;;;6.13;4.80;;;;;;;19.16;12.89;101855.19;4921107;29;20040;-79
2022/03/10 06:28:50;;;;;;;9.88;4.80;;;;;;;19.73;12.61;101866.78;4902064;29;20047;-79
2022/03/10 06:32:33;;;;;;;;;;;;;;;;;;;;;
2022/03/10 06:34:59;;;;;;;7.15;4.20;;;;;;;19.71;12.23;101773.50;4907386;29;20063;-81
2022/03/10 06:37:36;;;;;;;4.95;3.75;;;;;;;19.85;11.67;101831.41;4907305;29;20052;-79
2022/03/10 06:40:06;;;;;;;6.80;4.07;;;;;;;20.31;11.80;101872.09;4918304;29;20111;-80
2022/03/10 06:42:42;;;;;;;8.40;4.30;;;;;;;20.91;11.31;101852.53;4912803;29;20047;-80
2022/03/10 06:45:47;;;;;;;6.57;4.45;;;;;;;20.72;11.15;101819.38;4905149;29;20135;-83
2022/03/10 06:48:20;;;;;;;7.72;4.47;;;;;;;21.65;11.11;101878.34;4908801;29;20049;-81
2022/03/10 06:50:46;;;;;;;5.90;4.13;;;;;;;20.94;11.24;101780.13;4907220;29;20055;-80
2022/03/10 06:53:25;;;;;;;7.38;4.60;;;;;;;21.40;10.71;101798.56;4921767;29;20056;-79
2022/03/10 06:55:54;;;;;;;7.30;4.38;;;;;;;21.18;10.86;101844.03;4904754;29;20031;-80
2022/03/10 06:58:20;;;;;;;7.55;4.68;;;;;;;21.15;10.86;101865.28;4923285;29;20047;-78
2022/03/10 07:00:47;;;;;;;7.20;4.60;;;;;;;22.31;10.29;101864.44;4927730;29;20142;-79
2022/03/10 07:03:24;;;;;;;7.80;4.80;;;;;;;22.52;9.95;101853.31;4893572;29;20494;-76
2022/03/10 07:05:50;;;;;;;6.78;4.45;;;;;;;23.22;9.98;101850.53;4917475;29;20050;-80
2022/03/10 07:08:19;;;;;;;7.15;4.45;;;;;;;23.61;9.65;101845.78;4919444;29;20139;-80
2022/03/10 07:11:14;;;;;;;7.15;4.63;;;;;;;23.01;9.53;101789.16;4908426;29;20036;-81
2022/03/10 07:14:03;;;;;;;6.03;4.82;;;;;;;23.71;9.56;101825.13;4883685;29;20525;-79
2022/03/10 07:16:49;;;;;;;7.78;4.40;;;;;;;24.40;9.17;101847.69;4882330;29;20044;-80
2022/03/10 07:19:27;;;;;;;7.60;4.07;;;;;;;24.64;9.36;101806.03;4918726;29;20143;-81
2022/03/10 07:22:09;;;;;;;10.73;6.90;;;;;;;25.22;8.91;101862.50;4903663;29;20051;-80
2022/03/10 07:24:52;;;;;;;5.85;2.90;;;;;;;24.09;8.82;101787.56;4916271;29;20052;-81
2022/03/10 07:27:34;;;;;;;5.88;3.70;;;;;;;24.48;9.10;101866.03;4907741;29;20039;-79
2022/03/10 07:30:02;;;;;;;4.95;3.53;;;;;;;23.91;8.88;101805.00;4916763;29;20044;-82
2022/03/10 07:32:33;;;;;;;2.78;2.50;;;;;;;24.20;8.90;101804.03;4917480;29;20079;-81
2022/03/10 07:35:02;;;;;;;6.40;2.50;;;;;;;24.75;8.65;101789.69;4891198;29;20075;-80
2022/03/10 07:37:40;;;;;;;4.25;2.72;;;;;;;24.18;9.04;101768.66;4906408;29;20035;-80
2022/03/10 07:40:09;;;;;;;2.88;2.22;;;;;;;24.36;8.79;101799.06;4908830;29;20056;-79
2022/03/10 07:42:38;;;;;;;2.92;2.33;;;;;;;24.78;8.20;101853.47;4924784;29;20155;-80
2022/03/10 07:45:09;;;;;;;3.92;2.05;;;;;;;24.50;8.49;101776.41;4922151;29;20055;-82
2022/03/10 07:47:35;;;;;;;3.65;2.20;;;;;;;25.12;8.18;101846.00;4906442;29;20498;-80
2022/03/10 07:50:03;;;;;;;2.67;2.25;;;;;;;25.15;7.72;101824.59;4906283;29;20043;-82
2022/03/10 07:52:41;;;;;;;3.65;2.45;;;;;;;25.33;8.19;101833.69;4891192;29;20052;-81
2022/03/10 07:55:13;;;;;;;2.97;2.10;;;;;;;25.35;8.13;101846.94;4916922;29;20040;-80
2022/03/10 07:57:41;;;;;;;4.35;2.13;;;;;;;25.81;8.30;101849.59;4920583;29;20035;-79
2022/03/10 08:00:08;;;;;;;5.03;2.30;;;;;;;26.14;7.63;101844.69;4906297;29;20090;-79
2022/03/10 08:02:45;;;;;;;2.60;2.35;;;;;;;25.67;7.57;101773.72;4910706;29;20118;-80
2022/03/10 08:05:46;;;;;;;6.35;2.33;;;;;;;25.04;8.01;101771.75;4923129;29;20102;-80
2022/03/10 08:08:13;;;;;;;5.10;2.35;;;;;;;25.68;8.03;101822.59;4916832;29;20131;-81
2022/03/10 08:10:40;;;;;;;3.70;2.08;;;;;;;25.45;7.78;101813.72;4924128;29;20190;-80
2022/03/10 08:13:06;;;;;;;3.08;2.45;;;;;;;25.17;7.89;101772.16;4924062;29;20056;-81
2022/03/10 08:15:35;;;;;;;3.40;2.20;;;;;;;25.61;8.05;101797.94;4922272;29;20050;-81
2022/03/10 08:18:03;;;;;;;4.43;2.53;;;;;;;25.83;7.46;101810.41;4914615;29;20150;-81
2022/03/10 08:20:46;;;;;;;4.82;2.35;;;;;;;26.00;7.55;101820.38;4925803;29;20510;-80
2022/03/10 08:23:20;;;;;;;3.90;2.30;;;;;;;26.28;8.05;101841.41;4923798;29;20047;-80
2022/03/10 08:25:48;;;;;;;3.42;2.40;;;;;;;25.86;7.68;101829.81;4908613;29;20059;-81
2022/03/10 08:28:26;;;;;;;3.85;2.00;;;;;;;25.30;8.04;101782.31;4912009;29;20043;-85
2022/03/10 08:31:04;;;;;;;3.60;2.13;;;;;;;26.03;7.90;101822.91;4893599;29;20055;-79
2022/03/10 08:33:33;;;;;;;3.70;2.30;;;;;;;25.76;7.48;101831.13;4922847;29;20103;-81
2022/03/10 08:35:59;;;;;;;2.65;2.17;;;;;;;25.51;8.12;101837.44;4924500;29;20064;-82
2022/03/10 08:38:26;;;;;;;3.55;2.10;;;;;;;26.05;7.91;101815.72;4923078;29;20103;-80
2022/03/10 08:40:52;;;;;;;3.08;1.92;;;;;;;25.99;7.79;101838.19;4909282;29;20063;-82
2022/03/10 08:43:32;;;;;;;;;;;;;;;;;;;;;
2022/03/10 08:46:14;;;;;;;2.25;2.05;;;;;;;25.42;7.52;101768.50;4908170;29;20137;-77
2022/03/10 08:49:03;;;;;;;2.55;2.10;;;;;;;26.26;7.71;101837.09;4921599;29;20126;-81
2022/03/10 08:51:33;;;;;;;2.90;2.20;;;;;;;26.74;7.66;101824.31;4894547;29;20044;-80
2022/03/10 08:54:25;;;;;;;2.97;2.22;;;;;;;27.56;7.85;101825.91;4907402;29;20067;-82
2022/03/10 08:57:22;;;;;;;3.15;2.08;;;;;;;28.19;7.38;101759.50;4875145;29;20104;-81
2022/03/10 09:00:20;;;;;;;2.72;2.22;;;;;;;28.23;7.52;101759.25;4920194;29;20054;-79
2022/03/10 09:02:58;;;;;;;4.18;2.20;;;;;;;28.37;7.24;101811.19;4925250;29;20112;-78
2022/03/10 09:05:40;;;;;;;3.65;2.30;;;;;;;27.80;7.37;101750.75;4924407;29;20059;-79
2022/03/10 09:09:04;;;;;;;2.40;2.00;;;;;;;27.46;7.36;101761.34;4904532;29;20115;-81
2022/03/10 09:11:47;;;;;;;2.80;1.90;;;;;;;27.89;7.67;101777.03;4942803;29;20050;-78
2022/03/10 09:14:14;;;;;;;2.90;2.20;;;;;;;27.57;7.48;101787.53;4908138;29;20052;-81
2022/03/10 09:16:52;;;;;;;2.63;2.08;;;;;;;27.53;7.22;101785.09;4888600;29;20479;-78
2022/03/10 09:19:18;;;;;;;3.40;2.70;;;;;;;26.91;6.81;101794.22;4902465;29;20059;-79
2022/03/10 09:21:45;;;;;;;2.90;2.45;;;;;;;25.86;7.09;101811.16;4904192;29;20053;-79
2022/03/10 09:24:11;;;;;;;3.92;2.35;;;;;;;25.77;7.16;101821.34;4899492;29;20052;-77
2022/03/10 09:26:41;;;;;;;4.88;1.90;;;;;;;24.70;7.63;101765.03;4887958;29;20052;-79
2022/03/10 09:29:08;;;;;;;5.28;2.50;;;;;;;24.75;7.57;101755.09;4886127;29;20119;-80
2022/03/10 09:31:34;;;;;;;5.65;2.60;;;;;;;24.94;7.77;101784.56;4902143;29;20108;-80
2022/03/10 09:34:04;;;;;;;6.13;2.00;;;;;;;24.99;7.68;101824.31;4894919;29;20190;-79
2022/03/10 09:36:39;;;;;;;3.70;2.15;;;;;;;24.38;7.69;101743.13;4894810;29;20075;-80
2022/03/10 09:39:09;;;;;;;4.15;2.63;;;;;;;24.61;7.63;101773.34;4907099;29;20099;-79
2022/03/10 09:41:38;;;;;;;3.80;2.23;;;;;;;23.87;7.68;101759.03;4872092;29;20101;-80
2022/03/10 09:44:22;;;;;;;5.75;2.85;;;;;;;24.60;7.63;101796.44;4886825;29;20115;-80
2022/03/10 09:46:50;;;;;;;2.53;2.10;;;;;;;24.32;7.82;101812.50;4900924;29;20053;-78
2022/03/10 09:49:19;;;;;;;2.05;1.60;;;;;;;24.74;7.91;101797.75;4899747;29;20124;-80
2022/03/10 09:51:48;;;;;;;2.60;1.95;;;;;;;25.71;7.75;101820.66;4924942;29;20056;-79
2022/03/10 09:54:14;;;;;;;4.40;2.80;;;;;;;26.05;7.54;101793.50;4924888;29;20051;-79
2022/03/10 09:56:42;;;;;;;3.53;2.92;;;;;;;27.09;7.37;101813.84;4901752;29;20389;-80
2022/03/10 09:59:12;;;;;;;4.55;2.08;;;;;;;27.04;7.25;101816.72;4919130;29;20048;-80
2022/03/10 10:01:44;;;;;;;2.97;2.30;;;;;;;26.88;7.48;101816.59;4912869;29;20147;-79
2022/03/10 10:04:10;;;;;;;2.30;1.80;;;;;;;26.31;7.28;101795.94;4859958;29;20059;-81
2022/03/10 10:06:59;;;;;;;2.97;1.83;;;;;;;25.17;7.65;101813.88;4875144;29;20083;-80
2022/03/10 10:09:42;;;;;;;2.75;1.70;;;;;;;24.89;7.56;101814.94;4881142;29;20163;-80
2022/03/10 10:12:09;;;;;;;2.63;2.15;;;;;;;25.18;7.71;101818.28;4891022;29;20040;-80
2022/03/10 10:14:41;;;;;;;2.80;1.80;;;;;;;25.50;7.61;101760.22;4901720;29;20044;-80
2022/03/10 10:17:11;;;;;;;2.10;1.70;;;;;;;26.26;7.34;101810.41;4885399;29;20040;-80
2022/03/10 10:19:40;;;;;;;3.00;1.60;;;;;;;24.78;7.50;101810.88;4909163;29;20048;-83
2022/03/10 10:22:19;;;;;;;3.08;2.20;;;;;;;21.03;7.52;101734.97;4907768;29;20077;-81
2022/03/10 10:24:53;;;;;;;1.95;1.75;;;;;;;17.79;8.80;101747.56;4908825;29;20195;-78
2022/03/10 10:27:22;;;;;;;3.67;2.10;;;;;;;15.94;9.50;101832.31;4911854;29;20417;-79
2022/03/10 10:29:54;;;;;;;3.38;2.10;;;;;;;14.39;9.94;101812.34;4906848;29;20048;-81
2022/03/10 10:32:24;;;;;;;2.30;1.95;;;;;;;13.41;10.38;101827.13;4890745;29;20534;-81
2022/03/10 10:35:05;;;;;;;3.05;2.13;;;;;;;12.24;10.81;101816.78;4905277;29;20036;-80
2022/03/10 10:37:31;;;;;;;3.05;2.10;;;;;;;11.21;11.51;101798.38;4907941;29;20063;-81
2022/03/10 10:39:58;;;;;;;2.35;1.83;;;;;;;10.00;11.69;101815.53;4871225;29;20055;-82
2022/03/10 10:42:32;;;;;;;2.90;1.98;;;;;;;9.10;12.40;101811.34;4878778;29;20376;-82
2022/03/10 10:45:00;;;;;;;6.63;2.20;;;;;;;8.39;12.65;101767.63;4888333;29;20048;-79
2022/03/10 10:47:30;;;;;;;3.58;2.08;;;;;;;7.79;12.75;101790.78;4905437;29;20150;-80
2022/03/10 10:49:58;;;;;;;2.78;1.90;;;;;;;7.62;13.03;101820.41;4892304;29;20103;-80
2022/03/10 10:52:24;;;;;;;3.35;2.13;;;;;;;7.24;13.36;101821.66;4906856;29;20537;-81
2022/03/10 10:55:07;;;;;;;3.28;1.90;;;;;;;6.81;13.74;101812.28;4908509;29;20071;-84
2022/03/10 10:57:35;;;;;;;4.57;1.65;;;;;;;6.30;13.69;101818.88;4892204;29;20075;-79
2022/03/10 11:00:12;;;;;;;2.90;1.98;;;;;;;5.99;14.34;101807.25;4904049;29;20047;-80
2022/03/10 11:02:43;;;;;;;2.60;1.92;;;;;;;5.51;14.42;101788.84;4919789;29;20052;-80
2022/03/10 11:05:14;;;;;;;2.97;1.77;;;;;;;5.31;14.97;101822.41;4908342;29;20119;-79
2022/03/10 11:07:41;;;;;;;5.28;2.20;;;;;;;4.87;15.31;101790.28;4903761;29;20064;-81
2022/03/10 11:10:12;;;;;;;3.42;2.03;;;;;;;4.70;15.48;101802.41;4932401;29;20042;-79
2022/03/10 11:12:41;;;;;;;3.28;1.55;;;;;;;4.29;15.25;101821.09;4939679;28;20048;-80
2022/03/10 11:15:09;;;;;;;2.15;1.50;;;;;;;3.98;15.78;101817.00;4915634;29;20406;-77
2022/03/10 11:17:35;;;;;;;3.60;1.90;;;;;;;3.75;15.77;101829.59;4909300;29;20055;-80
2022/03/10 11:20:07;;;;;;;3.15;1.90;;;;;;;3.28;16.04;101816.00;4937072;29;20039;-81
2022/03/10 11:22:51;;;;;;;2.72;1.73;;;;;;;3.23;16.46;101827.75;4906074;29;20040;-80
2022/03/10 11:25:30;;;;;;;3.92;1.90;;;;;;;2.90;16.57;101807.13;4920161;29;20059;-79
2022/03/10 11:28:09;;;;;;;2.55;1.83;;;;;;;2.76;16.64;101834.66;4915904;29;20051;-81
2022/03/10 11:30:36;;;;;;;2.75;1.70;;;;;;;2.53;17.20;101829.09;4924014;29;20075;-79
2022/03/10 11:33:11;;;;;;;3.80;1.75;;;;;;;2.44;17.31;101832.84;4912148;29;20505;-80
2022/03/10 11:35:49;;;;;;;4.97;1.90;;;;;;;2.02;17.44;101808.22;4910570;29;20036;-79
2022/03/10 11:38:17;;;;;;;2.80;1.80;;;;;;;2.03;17.04;101825.41;4917097;29;20046;-78
2022/03/10 11:40:44;;;;;;;2.72;1.55;;;;;;;1.68;18.02;101838.72;4908558;29;20040;-80
2022/03/10 11:43:16;;;;;;;3.50;1.70;;;;;;;1.58;18.21;101815.06;4879522;29;20520;-79
2022/03/10 11:45:42;;;;;;;3.10;1.60;;;;;;;1.39;18.03;101810.50;4921458;29;20048;-79
2022/03/10 11:48:24;;;;;;;2.72;1.60;;;;;;;1.33;18.25;101820.41;4931110;29;20057;-79